createdAt,value
2019-03-08T00:00:25.157Z,7.50
2019-03-08T00:02:53.659Z,7.50
2019-03-08T00:05:22.122Z,7.60
2019-03-08T00:07:50.543Z,7.60
2019-03-08T00:10:18.993Z,7.60
2019-03-08T00:12:47.475Z,7.60
2019-03-08T00:15:16.019Z,7.60
2019-03-08T00:17:44.570Z,7.60
2019-03-08T00:20:13.110Z,7.40
2019-03-08T00:22:41.542Z,7.40
2019-03-08T00:25:14.796Z,7.40
2019-03-08T00:27:43.212Z,7.40
2019-03-08T00:30:14.236Z,7.40
2019-03-08T00:32:43.049Z,7.40
2019-03-08T00:35:11.988Z,7.30
2019-03-08T00:37:40.461Z,7.30
2019-03-08T00:40:13.576Z,7.20
2019-03-08T00:42:42.116Z,7.20
2019-03-08T00:45:13.420Z,7.20
2019-03-08T00:47:43.489Z,7.20
2019-03-08T00:50:13.196Z,7.20
2019-03-08T00:52:41.839Z,7.10
2019-03-08T00:55:11.714Z,7.10
2019-03-08T00:57:40.495Z,7.10
2019-03-08T01:00:16.201Z,7.10
2019-03-08T01:02:44.653Z,7.10
2019-03-08T01:05:13.556Z,7.10
2019-03-08T01:07:42.080Z,7.00
2019-03-08T01:10:18.982Z,7.00
2019-03-08T01:12:47.584Z,7.00
2019-03-08T01:15:17.551Z,7.00
2019-03-08T01:17:46.096Z,7.00
2019-03-08T01:20:16.947Z,7.00
2019-03-08T01:22:45.412Z,7.00
2019-03-08T01:25:14.289Z,7.00
2019-03-08T01:27:59.394Z,7.00
2019-03-08T01:30:27.943Z,7.00
2019-03-08T01:32:56.410Z,7.00
2019-03-08T01:35:24.925Z,7.00
2019-03-08T01:37:53.781Z,7.00
2019-03-08T01:40:22.379Z,7.00
2019-03-08T01:42:50.779Z,7.00
2019-03-08T01:45:19.202Z,7.00
2019-03-08T01:47:47.600Z,7.00
2019-03-08T01:50:16.098Z,7.00
2019-03-08T01:52:44.584Z,7.10
2019-03-08T01:55:13.068Z,7.10
2019-03-08T01:57:41.457Z,7.10
2019-03-08T02:00:13.259Z,7.20
2019-03-08T02:02:41.683Z,7.20
2019-03-08T02:05:10.176Z,7.20
2019-03-08T02:07:38.570Z,7.20
2019-03-08T02:10:10.405Z,7.20
2019-03-08T02:12:38.815Z,7.20
2019-03-08T02:15:10.143Z,7.20
2019-03-08T02:17:38.558Z,7.20
2019-03-08T02:20:10.166Z,7.20
2019-03-08T02:22:38.566Z,7.20
2019-03-08T02:25:07.515Z,7.20
2019-03-08T02:27:35.926Z,7.20
2019-03-08T02:30:06.653Z,7.20
2019-03-08T02:32:35.079Z,7.20
2019-03-08T02:35:04.690Z,7.20
2019-03-08T02:37:33.118Z,7.10
2019-03-08T02:40:01.534Z,7.10
2019-03-08T02:42:29.968Z,7.10
2019-03-08T02:44:58.377Z,7.10
2019-03-08T02:47:26.787Z,7.00
2019-03-08T02:49:55.221Z,7.00
2019-03-08T02:52:23.648Z,7.00
2019-03-08T02:54:52.084Z,7.00
2019-03-08T02:57:20.486Z,7.00
2019-03-08T02:59:48.895Z,7.00
2019-03-08T03:02:17.322Z,7.00
2019-03-08T03:04:45.724Z,7.10
2019-03-08T03:07:14.154Z,7.00
2019-03-08T03:09:42.560Z,7.00
2019-03-08T03:12:10.981Z,7.00
2019-03-08T03:14:39.381Z,7.00
2019-03-08T03:17:07.798Z,7.00
2019-03-08T03:19:36.192Z,7.00
2019-03-08T03:22:04.615Z,7.00
2019-03-08T03:24:33.021Z,6.90
2019-03-08T03:27:01.416Z,6.90
2019-03-08T03:29:29.811Z,6.90
2019-03-08T03:31:58.216Z,6.90
2019-03-08T03:34:26.624Z,6.80
2019-03-08T03:36:55.024Z,6.90
2019-03-08T03:39:23.436Z,6.90
2019-03-08T03:41:51.835Z,6.80
2019-03-08T03:44:20.256Z,6.80
2019-03-08T03:46:48.674Z,6.80
2019-03-08T03:49:17.092Z,6.80
2019-03-08T03:51:45.510Z,6.70
2019-03-08T03:54:13.933Z,6.80
2019-03-08T03:56:42.325Z,6.80
2019-03-08T03:59:10.739Z,6.80
2019-03-08T04:01:40.868Z,6.90
2019-03-08T04:04:09.264Z,6.90
2019-03-08T04:06:37.664Z,6.90
2019-03-08T04:09:09.168Z,6.90
2019-03-08T04:11:37.566Z,6.90
2019-03-08T04:14:05.975Z,6.90
2019-03-08T04:16:34.372Z,6.90
2019-03-08T04:19:02.795Z,6.90
2019-03-08T04:21:31.190Z,6.90
2019-03-08T04:23:59.600Z,6.90
2019-03-08T04:26:28.292Z,6.90
2019-03-08T04:28:56.770Z,6.90
2019-03-08T04:31:25.209Z,6.90
2019-03-08T04:33:53.652Z,6.90
2019-03-08T04:36:22.068Z,6.90
2019-03-08T04:38:50.472Z,6.90
2019-03-08T04:41:18.907Z,6.90
2019-03-08T04:43:47.313Z,6.80
2019-03-08T04:46:15.735Z,6.90
2019-03-08T04:48:44.204Z,6.90
2019-03-08T04:51:12.607Z,6.90
2019-03-08T04:53:41.020Z,6.90
2019-03-08T04:56:09.440Z,6.90
2019-03-08T04:58:37.833Z,6.80
2019-03-08T05:01:06.321Z,6.80
2019-03-08T05:03:34.746Z,6.80
2019-03-08T05:06:03.238Z,6.80
2019-03-08T05:08:31.639Z,6.80
2019-03-08T05:11:00.079Z,6.90
2019-03-08T05:13:28.504Z,6.80
2019-03-08T05:15:56.907Z,6.80
2019-03-08T05:18:25.580Z,6.80
2019-03-08T05:20:54.015Z,6.80
2019-03-08T05:23:22.408Z,6.80
2019-03-08T05:25:50.872Z,6.80
2019-03-08T05:28:19.274Z,6.80
2019-03-08T05:30:47.680Z,6.70
2019-03-08T05:33:16.452Z,6.70
2019-03-08T05:35:44.891Z,6.80
2019-03-08T05:38:13.370Z,6.80
2019-03-08T05:40:41.787Z,6.70
2019-03-08T05:43:10.184Z,6.70
2019-03-08T05:45:38.608Z,6.80
2019-03-08T05:48:08.923Z,6.70
2019-03-08T05:50:37.368Z,6.80
2019-03-08T05:53:05.770Z,6.80
2019-03-08T05:55:34.203Z,6.80
2019-03-08T05:58:02.602Z,6.80
2019-03-08T06:00:34.484Z,6.80
2019-03-08T06:03:02.788Z,6.80
2019-03-08T06:05:31.266Z,6.80
2019-03-08T06:07:59.733Z,6.80
2019-03-08T06:10:29.104Z,6.80
2019-03-08T06:12:58.098Z,6.80
2019-03-08T06:15:26.570Z,6.80
2019-03-08T06:17:56.463Z,6.80
2019-03-08T06:20:25.056Z,6.80
2019-03-08T06:22:53.521Z,6.80
2019-03-08T06:25:21.963Z,6.80
2019-03-08T06:27:50.391Z,6.80
2019-03-08T06:30:18.855Z,6.90
2019-03-08T06:32:47.337Z,6.80
2019-03-08T06:35:15.830Z,6.80
2019-03-08T06:37:44.264Z,6.80
2019-03-08T06:40:14.320Z,6.90
2019-03-08T06:42:42.759Z,6.90
2019-03-08T06:45:16.742Z,6.90
2019-03-08T06:47:45.595Z,6.90
2019-03-08T06:50:15.203Z,7.00
2019-03-08T06:52:43.775Z,6.90
2019-03-08T06:55:13.822Z,7.00
2019-03-08T06:57:42.317Z,6.90
2019-03-08T07:00:22.869Z,7.00
2019-03-08T07:02:51.300Z,7.00
2019-03-08T07:05:19.802Z,7.00
2019-03-08T07:07:48.199Z,7.00
2019-03-08T07:10:16.605Z,7.00
2019-03-08T07:12:45.011Z,7.00
2019-03-08T07:15:13.441Z,7.00
2019-03-08T07:17:41.846Z,7.00
2019-03-08T07:20:20.771Z,7.10
2019-03-08T07:22:57.136Z,7.00
2019-03-08T07:25:36.217Z,7.10
2019-03-08T07:28:22.720Z,7.10
2019-03-08T07:31:05.058Z,7.10
2019-03-08T07:33:38.135Z,7.10
2019-03-08T07:36:08.336Z,7.20
2019-03-08T07:38:44.363Z,7.20
2019-03-08T07:41:14.406Z,7.20
2019-03-08T07:43:49.978Z,7.20
2019-03-08T07:46:31.873Z,7.20
2019-03-08T07:49:01.948Z,7.20
2019-03-08T07:51:34.804Z,7.20
2019-03-08T07:54:07.999Z,7.20
2019-03-08T07:56:38.042Z,7.20
2019-03-08T07:59:08.095Z,7.20
2019-03-08T08:01:38.152Z,7.20
2019-03-08T08:04:08.215Z,7.20
2019-03-08T08:06:40.667Z,7.20
2019-03-08T08:09:18.863Z,7.20
2019-03-08T08:12:00.957Z,7.20
2019-03-08T08:14:43.225Z,7.20
2019-03-08T08:17:13.256Z,7.20
2019-03-08T08:19:48.995Z,7.20
2019-03-08T08:22:21.466Z,7.20
2019-03-08T08:25:07.578Z,7.20
2019-03-08T08:27:43.190Z,7.20
2019-03-08T08:30:21.906Z,7.30
2019-03-08T08:33:03.831Z,7.30
2019-03-08T08:35:36.664Z,7.30
2019-03-08T08:38:06.714Z,7.30
2019-03-08T08:40:52.990Z,7.40
2019-03-08T08:43:25.775Z,7.40
2019-03-08T08:45:58.936Z,7.40
2019-03-08T08:48:31.955Z,7.50
2019-03-08T08:51:02.023Z,7.70
2019-03-08T08:53:38.231Z,7.70
2019-03-08T08:56:14.112Z,7.70
2019-03-08T08:58:44.156Z,7.70
2019-03-08T09:01:19.907Z,7.60
2019-03-08T09:03:50.228Z,7.60
2019-03-08T09:06:20.294Z,7.60
2019-03-08T09:08:53.222Z,7.60
2019-03-08T09:11:44.091Z,7.50
2019-03-08T09:14:19.280Z,7.40
2019-03-08T09:16:58.369Z,7.40
2019-03-08T09:19:31.425Z,7.50
2019-03-08T09:22:01.516Z,7.50
2019-03-08T09:24:43.210Z,7.40
2019-03-08T09:27:31.356Z,7.20
2019-03-08T09:30:04.216Z,7.30
2019-03-08T09:32:34.275Z,7.30
2019-03-08T09:35:13.252Z,7.30
2019-03-08T09:37:43.295Z,7.30
2019-03-08T09:40:14.221Z,7.40
2019-03-08T09:42:47.396Z,7.50
2019-03-08T09:45:17.516Z,7.50
2019-03-08T09:48:03.816Z,7.50
2019-03-08T09:50:33.884Z,7.60
2019-03-08T09:53:20.256Z,7.60
2019-03-08T09:55:50.363Z,7.50
2019-03-08T09:58:23.455Z,7.50
2019-03-08T10:00:59.162Z,7.40
2019-03-08T10:03:29.212Z,7.30
2019-03-08T10:06:17.055Z,7.30
2019-03-08T10:08:53.134Z,7.30
2019-03-08T10:11:26.105Z,7.30
2019-03-08T10:13:59.355Z,7.30
2019-03-08T10:16:41.479Z,7.20
2019-03-08T10:19:11.585Z,7.20
2019-03-08T10:21:44.296Z,7.20
2019-03-08T10:24:17.289Z,7.20
2019-03-08T10:26:50.105Z,7.20
2019-03-08T10:29:26.007Z,7.20
2019-03-08T10:32:07.965Z,7.20
2019-03-08T10:34:43.794Z,7.30
2019-03-08T10:37:37.671Z,7.30
2019-03-08T10:40:13.614Z,7.20
2019-03-08T10:50:17.624Z,7.30
2019-03-08T10:52:50.431Z,7.30
2019-03-08T10:55:20.485Z,7.40
2019-03-08T10:57:50.575Z,7.40
2019-03-08T11:23:40.522Z,7.50
2019-03-08T11:26:26.664Z,7.50
2019-03-08T11:29:14.044Z,7.60
2019-03-08T11:31:47.151Z,7.50
2019-03-08T11:34:29.566Z,7.70
2019-03-08T11:37:05.749Z,7.70
2019-03-08T11:39:41.544Z,7.70
2019-03-08T11:42:30.073Z,7.80
2019-03-08T11:45:05.845Z,7.90
2019-03-08T11:47:54.003Z,8.00
2019-03-08T11:50:24.037Z,8.20
2019-03-08T11:53:06.470Z,8.20
2019-03-08T11:55:36.588Z,8.20
2019-03-08T11:58:06.651Z,8.10
2019-03-08T12:00:36.756Z,8.20
2019-03-08T12:03:15.657Z,8.20
2019-03-08T12:05:45.784Z,8.20
2019-03-08T12:08:31.947Z,8.20
2019-03-08T12:11:28.252Z,8.20
2019-03-08T12:14:01.289Z,8.20
2019-03-08T12:16:47.537Z,8.20
2019-03-08T12:19:17.602Z,8.20
2019-03-08T12:21:53.809Z,8.20
2019-03-08T12:24:23.888Z,8.20
2019-03-08T12:26:59.940Z,8.30
2019-03-08T12:29:30.192Z,8.50
2019-03-08T12:32:03.217Z,8.40
2019-03-08T12:34:49.864Z,8.40
2019-03-08T12:37:19.904Z,8.50
2019-03-08T12:39:55.986Z,8.50
2019-03-08T12:42:35.030Z,8.70
2019-03-08T12:45:20.846Z,8.80
2019-03-08T12:48:07.262Z,10.70
2019-03-08T12:50:53.390Z,10.40
2019-03-08T12:53:24.003Z,9.80
2019-03-08T12:56:03.008Z,9.30
2019-03-08T12:58:38.520Z,9.10
2019-03-08T13:01:14.527Z,8.90
2019-03-08T13:03:53.639Z,8.60
2019-03-08T13:06:23.756Z,8.50
2019-03-08T13:08:56.324Z,8.10
2019-03-08T13:11:32.960Z,7.60
2019-03-08T13:13:54.916Z,7.30
2019-03-08T13:16:23.363Z,7.40
2019-03-08T13:18:51.849Z,7.40
2019-03-08T13:21:20.308Z,7.50
2019-03-08T13:23:48.706Z,7.50
2019-03-08T13:26:17.112Z,7.70
2019-03-08T13:28:45.872Z,7.80
2019-03-08T13:31:14.283Z,8.50
2019-03-08T13:33:42.678Z,9.10
2019-03-08T13:36:11.126Z,9.40
2019-03-08T13:38:39.524Z,9.70
2019-03-08T13:41:07.938Z,9.80
2019-03-08T13:43:36.528Z,10.40
2019-03-08T13:46:04.960Z,10.20
2019-03-08T13:48:33.359Z,9.80
2019-03-08T13:51:01.771Z,9.40
2019-03-08T13:53:30.187Z,9.10
2019-03-08T13:55:58.598Z,8.90
2019-03-08T13:58:27.375Z,8.80
2019-03-08T14:00:55.830Z,8.70
2019-03-08T14:03:24.279Z,8.70
2019-03-08T14:05:52.713Z,8.90
2019-03-08T14:08:21.165Z,9.80
2019-03-08T14:10:49.596Z,10.20
2019-03-08T14:13:18.374Z,10.20
2019-03-08T14:15:46.791Z,9.70
2019-03-08T14:18:15.203Z,9.20
2019-03-08T14:20:43.633Z,9.10
2019-03-08T14:23:12.045Z,9.00
2019-03-08T14:25:40.451Z,8.90
2019-03-08T14:28:09.223Z,8.90
2019-03-08T14:30:39.360Z,8.90
2019-03-08T14:33:07.816Z,8.80
2019-03-08T14:35:36.244Z,8.80
2019-03-08T14:38:04.639Z,8.80
2019-03-08T14:40:34.691Z,8.70
2019-03-08T14:43:23.083Z,8.70
2019-03-08T14:46:09.500Z,8.60
2019-03-08T14:48:37.919Z,8.70
2019-03-08T14:51:09.423Z,8.70
2019-03-08T14:53:36.472Z,8.70
2019-03-08T14:56:04.978Z,8.70
2019-03-08T14:58:36.794Z,9.50
2019-03-08T15:01:06.307Z,11.10
2019-03-08T15:03:43.053Z,11.80
2019-03-08T15:06:04.063Z,11.90
2019-03-08T15:08:32.497Z,12.10
2019-03-08T15:11:00.902Z,12.30
2019-03-08T15:13:29.312Z,12.30
2019-03-08T15:16:01.671Z,12.60
2019-03-08T15:18:29.504Z,12.90
2019-03-08T15:20:58.759Z,13.00
2019-03-08T15:23:28.451Z,12.20
2019-03-08T15:25:56.864Z,12.40
2019-03-08T15:28:25.654Z,12.60
2019-03-08T15:30:54.054Z,12.70
2019-03-08T15:33:22.522Z,13.00
2019-03-08T15:35:50.992Z,12.90
2019-03-08T15:38:19.399Z,12.50
2019-03-08T15:40:48.881Z,12.30
2019-03-08T15:43:17.422Z,12.60
2019-03-08T15:45:46.189Z,12.40
2019-03-08T15:48:15.856Z,12.30
2019-03-08T15:50:46.737Z,12.20
2019-03-08T15:53:14.700Z,12.30
2019-03-08T15:55:52.524Z,12.60
2019-03-08T15:58:13.666Z,11.90
2019-03-08T16:00:42.050Z,11.50
2019-03-08T16:03:10.479Z,10.80
2019-03-08T16:05:38.877Z,10.40
2019-03-08T16:08:07.297Z,10.20
2019-03-08T16:10:35.729Z,10.20
2019-03-08T16:13:04.225Z,10.00
2019-03-08T16:15:32.639Z,10.00
2019-03-08T16:18:01.035Z,10.00
2019-03-08T16:20:29.462Z,9.90
2019-03-08T16:22:58.061Z,9.90
2019-03-08T16:25:26.500Z,9.90
2019-03-08T16:27:54.908Z,9.90
2019-03-08T16:30:30.669Z,9.80
2019-03-08T16:33:03.641Z,9.70
2019-03-08T16:35:33.457Z,9.70
2019-03-08T16:38:09.269Z,9.60
2019-03-08T16:40:42.239Z,9.60
2019-03-08T16:43:12.092Z,9.60
2019-03-08T16:45:44.621Z,9.50
2019-03-08T16:48:14.450Z,9.50
2019-03-08T16:50:56.076Z,9.40
2019-03-08T16:53:27.325Z,9.30
2019-03-08T16:55:56.286Z,9.30
2019-03-08T16:58:31.799Z,9.30
2019-03-08T17:01:01.835Z,9.30
2019-03-08T17:03:40.831Z,9.20
2019-03-08T17:06:26.205Z,9.20
2019-03-08T17:08:48.692Z,9.10
2019-03-08T17:11:18.740Z,9.10
2019-03-08T17:13:54.787Z,9.10
2019-03-08T17:16:24.824Z,9.20
2019-03-08T17:18:54.888Z,9.20
2019-03-08T17:21:42.947Z,9.20
2019-03-08T17:24:27.783Z,9.30
2019-03-08T17:27:16.052Z,9.20
2019-03-08T17:30:01.541Z,9.10
2019-03-08T17:32:34.283Z,9.10
2019-03-08T17:35:04.348Z,9.00
2019-03-08T17:37:40.099Z,9.00
2019-03-08T17:40:10.291Z,9.00
2019-03-08T17:42:55.325Z,8.90
2019-03-08T17:45:27.807Z,8.90
2019-03-08T17:48:00.532Z,8.90
2019-03-08T17:50:32.994Z,8.90
2019-03-08T17:53:03.046Z,8.90
2019-03-08T17:55:42.074Z,8.90
2019-03-08T17:58:28.372Z,8.90
2019-03-08T18:01:16.383Z,8.90
2019-03-08T18:03:48.886Z,8.90
2019-03-08T18:06:35.445Z,8.90
2019-03-08T18:09:06.778Z,8.90
2019-03-08T18:11:45.972Z,8.90
2019-03-08T18:14:21.568Z,8.90
2019-03-08T18:17:08.119Z,8.90
2019-03-08T18:19:55.978Z,8.80
2019-03-08T18:22:35.203Z,8.80
2019-03-08T18:25:05.571Z,8.80
2019-03-08T18:27:51.972Z,8.80
2019-03-08T18:30:34.016Z,8.80
2019-03-08T18:33:13.286Z,8.80
2019-03-08T18:35:52.415Z,8.80
2019-03-08T18:38:24.875Z,8.80
2019-03-08T18:41:00.565Z,8.90
2019-03-08T18:43:39.687Z,8.90
2019-03-08T18:46:18.420Z,8.90
2019-03-08T18:48:51.170Z,8.90
2019-03-08T18:51:33.498Z,8.90
2019-03-08T18:54:06.313Z,8.90
2019-03-08T18:56:39.038Z,8.90
2019-03-08T18:59:25.488Z,8.90
2019-03-08T19:01:55.551Z,8.90
2019-03-08T19:04:41.883Z,8.90
2019-03-08T19:07:18.112Z,9.00
2019-03-08T19:09:48.164Z,8.90
2019-03-08T19:12:26.959Z,8.90
2019-03-08T19:14:57.093Z,8.90
2019-03-08T19:17:30.115Z,8.90
2019-03-08T19:20:09.284Z,8.90
2019-03-08T19:22:42.063Z,8.90
2019-03-08T19:25:24.457Z,8.90
2019-03-08T19:27:57.239Z,8.90
2019-03-08T19:30:35.289Z,8.90
2019-03-08T19:33:05.794Z,8.90
2019-03-08T19:35:44.927Z,8.90
2019-03-08T19:38:31.041Z,8.90
2019-03-08T19:41:07.488Z,8.90
2019-03-08T19:43:52.641Z,8.80
2019-03-08T19:46:25.378Z,8.90
2019-03-08T19:48:55.786Z,8.80
2019-03-08T19:51:25.873Z,8.90
2019-03-08T19:54:13.760Z,8.80
2019-03-08T19:56:56.004Z,8.80
2019-03-08T19:59:31.714Z,8.90
2019-03-08T20:02:04.558Z,8.90
2019-03-08T20:04:37.551Z,8.90
2019-03-08T20:07:07.617Z,8.90
2019-03-08T20:09:43.426Z,8.90
2019-03-08T20:12:25.551Z,8.90
2019-03-08T20:14:55.591Z,8.90
2019-03-08T20:17:40.822Z,8.90
2019-03-08T20:20:22.879Z,8.80
2019-03-08T20:22:53.318Z,8.80
2019-03-08T20:25:23.360Z,8.80
2019-03-08T20:27:53.409Z,8.80
2019-03-08T20:30:26.135Z,8.70
2019-03-08T20:33:08.359Z,8.70
2019-03-08T20:35:47.692Z,8.70
2019-03-08T20:38:32.401Z,8.70
2019-03-08T20:41:05.248Z,8.70
2019-03-08T20:43:41.206Z,8.70
2019-03-08T20:46:11.256Z,8.70
2019-03-08T20:48:39.669Z,8.60
2019-03-08T20:51:09.694Z,8.70
2019-03-08T20:53:38.198Z,8.60
2019-03-08T20:56:06.606Z,8.60
2019-03-08T20:58:35.491Z,8.60
2019-03-08T21:01:04.667Z,8.60
2019-03-08T21:03:33.084Z,8.60
2019-03-08T21:06:01.495Z,8.60
2019-03-08T21:08:29.906Z,8.60
2019-03-08T21:10:58.295Z,8.60
2019-03-08T21:13:26.752Z,8.50
2019-03-08T21:15:55.139Z,8.60
2019-03-08T21:18:23.839Z,8.60
2019-03-08T21:20:52.239Z,8.50
2019-03-08T21:23:20.623Z,8.50
2019-03-08T21:25:49.049Z,8.50
2019-03-08T21:28:17.440Z,8.50
2019-03-08T21:30:45.855Z,8.50
2019-03-08T21:33:14.329Z,8.50
2019-03-08T21:35:42.743Z,8.50
2019-03-08T21:38:11.149Z,8.50
2019-03-08T21:40:39.556Z,8.50
2019-03-08T21:43:07.952Z,8.50
2019-03-08T21:45:36.386Z,8.50
2019-03-08T21:48:04.784Z,8.40
2019-03-08T21:50:33.260Z,8.50
2019-03-08T21:53:01.673Z,8.50
2019-03-08T21:55:30.106Z,8.50
2019-03-08T21:57:58.495Z,8.50
2019-03-08T22:00:27.233Z,8.40
2019-03-08T22:02:55.627Z,8.50
2019-03-08T22:05:34.278Z,8.50
2019-03-08T22:08:02.674Z,8.40
2019-03-08T22:10:38.959Z,8.50
2019-03-08T22:13:07.356Z,8.50
2019-03-08T22:15:35.849Z,8.50
2019-03-08T22:18:04.330Z,8.40
2019-03-08T22:20:32.838Z,8.30
2019-03-08T22:23:01.224Z,8.40
2019-03-08T22:25:29.647Z,8.40
2019-03-08T22:27:58.043Z,8.40
2019-03-08T22:30:26.467Z,8.40
2019-03-08T22:32:54.945Z,8.40
2019-03-08T22:35:23.348Z,8.30
2019-03-08T22:37:52.052Z,8.30
2019-03-08T22:40:20.475Z,8.40
2019-03-08T22:42:48.875Z,8.40
2019-03-08T22:45:17.282Z,8.40
2019-03-08T22:47:45.677Z,8.40
2019-03-08T22:50:15.132Z,8.30
2019-03-08T22:52:43.529Z,8.30
2019-03-08T22:55:13.795Z,8.30
2019-03-08T22:57:42.258Z,8.30
2019-03-08T23:00:27.633Z,8.40
2019-03-08T23:02:56.315Z,8.30
2019-03-08T23:05:24.999Z,8.30
2019-03-08T23:07:53.673Z,8.40
2019-03-08T23:10:22.233Z,8.40
2019-03-08T23:12:50.628Z,8.40
2019-03-08T23:15:19.298Z,8.40
2019-03-08T23:17:47.708Z,8.30
2019-03-08T23:20:16.125Z,8.40
2019-03-08T23:22:44.541Z,8.30
2019-03-08T23:25:12.952Z,8.30
2019-03-08T23:27:43.002Z,8.30
2019-03-08T23:30:13.131Z,8.30
2019-03-08T23:32:42.825Z,8.30
2019-03-08T23:35:11.246Z,8.30
2019-03-08T23:37:39.656Z,8.30
2019-03-08T23:40:08.902Z,8.30
2019-03-08T23:42:37.317Z,8.30
2019-03-08T23:45:08.187Z,8.30
2019-03-08T23:47:36.607Z,8.30
2019-03-08T23:50:07.669Z,8.40
2019-03-08T23:52:36.077Z,8.40
2019-03-08T23:55:06.886Z,8.30
2019-03-08T23:57:35.305Z,8.30
